createdAt,value
2022-07-28T00:00:08.414Z,43.51
2022-07-28T00:01:06.654Z,44.79
2022-07-28T00:02:06.704Z,46.08
2022-07-28T00:03:06.682Z,42.86
2022-07-28T00:04:06.626Z,43.34
2022-07-28T00:05:06.619Z,43.51
2022-07-28T00:06:06.615Z,44.79
2022-07-28T00:07:06.614Z,48.82
2022-07-28T00:08:06.599Z,49.79
2022-07-28T00:09:06.626Z,43.99
2022-07-28T00:10:06.582Z,47.86
2022-07-28T00:11:06.578Z,46.25
2022-07-28T00:12:06.573Z,47.53
2022-07-28T00:13:06.961Z,48.50
2022-07-28T00:14:06.556Z,52.85
2022-07-28T00:15:06.542Z,46.57
2022-07-28T00:16:06.608Z,44.15
2022-07-28T00:17:06.524Z,44.79
2022-07-28T00:18:06.526Z,42.54
2022-07-28T00:19:06.509Z,42.54
2022-07-28T00:20:06.503Z,53.98
2022-07-28T00:21:06.497Z,45.44
2022-07-28T00:22:06.482Z,51.24
2022-07-28T00:23:07.482Z,43.34
2022-07-28T00:24:06.489Z,54.14
2022-07-28T00:25:06.477Z,44.79
2022-07-28T00:26:06.458Z,44.63
2022-07-28T00:27:06.453Z,43.18
2022-07-28T00:28:07.214Z,45.44
2022-07-28T00:29:06.436Z,46.57
2022-07-28T00:30:06.429Z,45.60
2022-07-28T00:31:09.784Z,43.02
2022-07-28T00:34:06.854Z,46.57
2022-07-28T00:35:08.257Z,44.79
2022-07-28T00:36:06.837Z,46.25
2022-07-28T00:37:06.900Z,47.37
2022-07-28T00:38:06.822Z,45.12
2022-07-28T00:39:06.819Z,43.34
2022-07-28T00:40:06.806Z,43.99
2022-07-28T00:41:07.883Z,47.37
2022-07-28T00:42:07.883Z,46.08
2022-07-28T00:43:07.874Z,46.25
2022-07-28T00:44:07.869Z,50.11
2022-07-28T00:45:07.855Z,47.37
2022-07-28T00:46:07.910Z,48.18
2022-07-28T00:47:07.847Z,47.86
2022-07-28T00:48:07.846Z,47.70
2022-07-28T00:49:07.850Z,47.37
2022-07-28T00:50:07.813Z,42.06
2022-07-28T00:51:07.820Z,42.06
2022-07-28T00:52:07.807Z,43.18
2022-07-28T00:53:07.837Z,45.92
2022-07-28T00:54:07.800Z,43.83
2022-07-28T00:55:07.776Z,44.47
2022-07-28T00:56:07.772Z,45.76
2022-07-28T00:57:07.766Z,44.15
2022-07-28T00:58:07.757Z,45.28
2022-07-28T00:59:07.739Z,46.89
2022-07-28T01:00:07.731Z,44.63
2022-07-28T01:01:07.740Z,46.57
2022-07-28T01:02:07.887Z,46.41
2022-07-28T01:03:07.797Z,43.67
2022-07-28T01:04:07.721Z,44.47
2022-07-28T01:05:07.706Z,44.96
2022-07-28T01:06:07.709Z,48.02
2022-07-28T01:07:07.698Z,46.57
2022-07-28T01:08:07.677Z,43.34
2022-07-28T01:09:07.673Z,45.76
2022-07-28T01:10:07.656Z,44.15
2022-07-28T01:11:07.662Z,43.18
2022-07-28T01:12:07.646Z,46.25
2022-07-28T01:13:07.653Z,45.12
2022-07-28T01:14:07.620Z,48.02
2022-07-28T01:15:08.630Z,43.67
2022-07-28T01:16:07.677Z,42.54
2022-07-28T01:17:07.617Z,49.31
2022-07-28T01:18:07.609Z,44.96
2022-07-28T01:19:08.231Z,47.05
2022-07-28T01:20:07.590Z,48.66
2022-07-28T01:21:07.575Z,42.38
2022-07-28T01:22:07.561Z,43.02
2022-07-28T01:23:07.549Z,47.37
2022-07-28T01:24:07.549Z,44.15
2022-07-28T01:25:07.555Z,43.99
2022-07-28T01:26:07.523Z,44.15
2022-07-28T01:27:07.510Z,47.53
2022-07-28T01:28:08.516Z,48.98
2022-07-28T01:29:07.501Z,49.31
2022-07-28T01:30:07.510Z,46.08
2022-07-28T01:31:07.568Z,44.63
2022-07-28T01:32:07.479Z,46.25
2022-07-28T01:33:07.469Z,48.02
2022-07-28T01:34:07.469Z,45.92
2022-07-28T01:35:07.476Z,47.05
2022-07-28T01:36:07.455Z,45.12
2022-07-28T01:37:07.434Z,48.02
2022-07-28T01:38:07.432Z,50.60
2022-07-28T01:39:07.435Z,48.02
2022-07-28T01:40:07.414Z,45.12
2022-07-28T01:41:07.413Z,46.57
2022-07-28T01:42:07.405Z,46.57
2022-07-28T01:43:07.394Z,48.98
2022-07-28T01:44:07.397Z,45.92
2022-07-28T01:45:07.393Z,43.51
2022-07-28T01:46:07.419Z,44.31
2022-07-28T01:47:07.384Z,44.47
2022-07-28T01:48:07.357Z,46.41
2022-07-28T01:49:07.380Z,44.31
2022-07-28T01:50:07.341Z,42.22
2022-07-28T01:51:07.348Z,42.70
2022-07-28T01:52:07.320Z,42.54
2022-07-28T01:53:07.311Z,46.08
2022-07-28T01:54:07.318Z,44.15
2022-07-28T01:55:07.294Z,44.31
2022-07-28T01:56:07.289Z,42.70
2022-07-28T01:57:07.277Z,41.57
2022-07-28T01:58:07.283Z,43.83
2022-07-28T01:59:07.271Z,47.37
2022-07-28T02:00:07.257Z,43.18
2022-07-28T02:01:07.337Z,42.54
2022-07-28T02:02:07.269Z,43.02
2022-07-28T02:03:07.235Z,45.12
2022-07-28T02:04:07.235Z,47.05
2022-07-28T02:05:07.307Z,52.53
2022-07-28T02:06:07.813Z,46.41
2022-07-28T02:07:07.198Z,46.89
2022-07-28T02:08:07.191Z,44.96
2022-07-28T02:09:07.185Z,44.47
2022-07-28T02:10:07.179Z,45.76
2022-07-28T02:11:09.785Z,45.60
2022-07-28T02:12:07.165Z,46.73
2022-07-28T02:13:07.147Z,52.53
2022-07-28T02:14:07.146Z,49.15
2022-07-28T02:15:07.136Z,45.28
2022-07-28T02:16:07.208Z,44.96
2022-07-28T02:17:07.125Z,44.79
2022-07-28T02:18:07.114Z,47.05
2022-07-28T02:19:07.107Z,46.73
2022-07-28T02:20:07.094Z,45.92
2022-07-28T02:21:07.086Z,48.98
2022-07-28T02:22:07.075Z,45.28
2022-07-28T02:23:07.077Z,45.76
2022-07-28T02:24:07.063Z,44.47
2022-07-28T02:25:07.054Z,43.18
2022-07-28T02:26:07.056Z,44.15
2022-07-28T02:27:07.050Z,44.79
2022-07-28T02:28:07.025Z,46.41
2022-07-28T02:29:07.025Z,47.53
2022-07-28T02:30:07.022Z,48.98
2022-07-28T02:31:07.044Z,52.37
2022-07-28T02:32:27.263Z,47.70
2022-07-28T02:33:07.981Z,45.76
2022-07-28T02:34:07.164Z,45.76
2022-07-28T02:35:06.987Z,56.07
2022-07-28T02:36:06.963Z,53.98
2022-07-28T02:37:07.821Z,49.95
2022-07-28T02:38:06.947Z,49.95
2022-07-28T02:39:06.941Z,51.56
2022-07-28T02:40:06.941Z,47.05
2022-07-28T02:41:06.931Z,47.70
2022-07-28T02:42:06.929Z,46.25
2022-07-28T02:43:06.929Z,45.12
2022-07-28T02:44:06.900Z,46.57
2022-07-28T02:45:06.894Z,47.70
2022-07-28T02:46:06.925Z,50.76
2022-07-28T02:47:06.878Z,48.50
2022-07-28T02:48:06.873Z,49.79
2022-07-28T02:49:07.007Z,52.85
2022-07-28T02:50:07.849Z,49.95
2022-07-28T02:51:06.844Z,47.05
2022-07-28T02:52:06.836Z,52.37
2022-07-28T02:53:14.904Z,51.08
2022-07-28T02:54:07.817Z,55.27
2022-07-28T02:55:06.817Z,56.24
2022-07-28T02:56:06.808Z,48.82
2022-07-28T02:57:06.791Z,49.15
2022-07-28T02:58:06.790Z,49.31
2022-07-28T02:59:06.772Z,52.53
2022-07-28T03:00:06.773Z,54.30
2022-07-28T03:01:06.821Z,59.30
2022-07-28T03:02:06.762Z,54.79
2022-07-28T03:03:06.745Z,50.27
2022-07-28T03:04:06.736Z,48.66
2022-07-28T03:05:07.464Z,55.11
2022-07-28T03:06:06.725Z,53.50
2022-07-28T03:07:06.723Z,50.60
2022-07-28T03:08:06.699Z,48.66
2022-07-28T03:09:06.886Z,50.60
2022-07-28T03:10:06.684Z,51.08
2022-07-28T03:11:06.674Z,58.49
2022-07-28T03:12:06.683Z,53.01
2022-07-28T03:13:06.660Z,48.98
2022-07-28T03:14:06.666Z,51.08
2022-07-28T03:15:06.648Z,53.82
2022-07-28T03:16:06.634Z,52.37
2022-07-28T03:17:06.709Z,55.27
2022-07-28T03:18:06.620Z,56.40
2022-07-28T03:19:06.617Z,54.14
2022-07-28T03:20:06.606Z,59.94
2022-07-28T03:21:06.602Z,49.79
2022-07-28T03:22:06.586Z,50.27
2022-07-28T03:23:06.574Z,51.24
2022-07-28T03:24:06.574Z,59.30
2022-07-28T03:25:06.569Z,53.17
2022-07-28T03:26:06.554Z,51.08
2022-07-28T03:27:06.549Z,48.50
2022-07-28T03:28:06.546Z,49.79
2022-07-28T03:29:06.528Z,52.37
2022-07-28T03:30:06.544Z,51.40
2022-07-28T03:31:06.607Z,58.81
2022-07-28T03:32:06.513Z,59.94
2022-07-28T03:33:06.494Z,53.33
2022-07-28T03:34:06.487Z,55.59
2022-07-28T03:35:06.494Z,57.85
2022-07-28T03:36:06.471Z,56.88
2022-07-28T03:37:06.461Z,56.40
2022-07-28T03:38:06.451Z,57.20
2022-07-28T03:39:06.445Z,59.94
2022-07-28T03:40:06.448Z,53.98
2022-07-28T03:41:06.438Z,52.85
2022-07-28T03:42:06.423Z,55.43
2022-07-28T03:43:06.413Z,56.56
2022-07-28T03:44:06.402Z,58.97
2022-07-28T03:45:06.417Z,58.01
2022-07-28T03:46:09.853Z,50.60
2022-07-28T03:47:08.372Z,57.04
2022-07-28T03:48:06.366Z,58.33
2022-07-28T03:49:06.443Z,55.43
2022-07-28T03:50:06.395Z,54.46
2022-07-28T03:51:06.348Z,52.37
2022-07-28T03:52:06.345Z,58.65
2022-07-28T03:53:06.326Z,57.04
2022-07-28T03:54:06.336Z,55.11
2022-07-28T03:55:06.308Z,57.36
2022-07-28T03:56:06.311Z,54.14
2022-07-28T03:57:06.295Z,52.85
2022-07-28T03:58:06.298Z,55.11
2022-07-28T03:59:06.295Z,54.62
2022-07-28T04:00:09.685Z,58.81
2022-07-28T04:01:07.304Z,55.11
2022-07-28T04:02:06.297Z,57.36
2022-07-28T04:03:35.271Z,57.52
2022-07-28T04:04:08.230Z,55.75
2022-07-28T04:05:06.231Z,58.81
2022-07-28T04:06:06.242Z,57.20
2022-07-28T04:07:06.210Z,60.26
2022-07-28T04:08:06.200Z,58.17
2022-07-28T04:09:06.189Z,56.24
2022-07-28T04:10:06.193Z,54.30
2022-07-28T04:11:06.182Z,56.07
2022-07-28T04:12:06.168Z,54.46
2022-07-28T04:13:06.161Z,55.27
2022-07-28T04:14:06.157Z,57.20
2022-07-28T04:15:06.143Z,52.85
2022-07-28T04:16:06.148Z,53.82
2022-07-28T04:17:06.178Z,58.01
2022-07-28T04:18:06.119Z,60.26
2022-07-28T04:19:06.762Z,55.75
2022-07-28T04:20:06.108Z,59.62
2022-07-28T04:21:06.102Z,60.10
2022-07-28T04:22:06.119Z,55.43
2022-07-28T04:23:06.076Z,56.72
2022-07-28T04:24:06.071Z,60.59
2022-07-28T04:25:06.058Z,61.23
2022-07-28T04:26:06.057Z,58.49
2022-07-28T04:27:06.059Z,59.14
2022-07-28T04:28:06.046Z,57.85
2022-07-28T04:29:06.048Z,55.59
2022-07-28T04:30:06.036Z,54.79
2022-07-28T04:31:06.048Z,60.26
2022-07-28T04:32:06.029Z,58.01
2022-07-28T04:33:06.011Z,56.40
2022-07-28T04:34:06.000Z,58.81
2022-07-28T04:35:05.996Z,60.59
2022-07-28T04:36:05.985Z,60.75
2022-07-28T04:37:05.969Z,55.59
2022-07-28T04:38:05.996Z,59.62
2022-07-28T04:39:06.953Z,57.20
2022-07-28T04:40:05.942Z,52.85
2022-07-28T04:41:05.931Z,59.14
2022-07-28T04:42:05.943Z,55.43
2022-07-28T04:43:05.927Z,60.91
2022-07-28T04:44:05.907Z,59.30
2022-07-28T04:45:05.907Z,59.78
2022-07-28T04:46:05.963Z,57.20
2022-07-28T04:47:06.505Z,58.81
2022-07-28T04:48:06.899Z,56.88
2022-07-28T04:49:05.912Z,60.10
2022-07-28T04:50:05.879Z,60.59
2022-07-28T04:51:05.861Z,57.36
2022-07-28T04:52:05.857Z,59.14
2022-07-28T04:53:05.841Z,59.14
2022-07-28T04:54:05.852Z,59.62
2022-07-28T04:55:05.859Z,59.14
2022-07-28T04:56:05.813Z,58.81
2022-07-28T04:57:07.584Z,61.23
2022-07-28T04:58:05.800Z,59.62
2022-07-28T04:59:05.801Z,58.01
2022-07-28T05:00:05.788Z,60.10
2022-07-28T05:01:06.458Z,61.87
2022-07-28T05:02:05.765Z,60.10
2022-07-28T05:03:05.757Z,63.65
2022-07-28T05:04:05.848Z,61.07
2022-07-28T05:05:05.824Z,60.26
2022-07-28T05:06:05.735Z,59.46
2022-07-28T05:07:07.821Z,58.81
2022-07-28T05:08:06.734Z,60.75
2022-07-28T05:09:05.716Z,61.07
2022-07-28T05:10:05.720Z,57.04
2022-07-28T05:11:05.713Z,59.62
2022-07-28T05:12:05.705Z,57.20
2022-07-28T05:13:05.721Z,61.71
2022-07-28T05:14:05.679Z,59.30
2022-07-28T05:15:05.674Z,56.07
2022-07-28T05:16:05.699Z,60.59
2022-07-28T05:17:05.654Z,61.39
2022-07-28T05:18:05.653Z,58.65
2022-07-28T05:19:05.634Z,56.24
2022-07-28T05:20:05.635Z,56.24
2022-07-28T05:21:05.627Z,62.36
2022-07-28T05:22:05.614Z,57.36
2022-07-28T05:23:05.606Z,56.56
2022-07-28T05:24:05.597Z,55.91
2022-07-28T05:25:05.660Z,57.52
2022-07-28T05:26:05.590Z,59.46
2022-07-28T05:27:05.569Z,58.65
2022-07-28T05:28:05.565Z,52.69
2022-07-28T05:29:05.572Z,59.30
2022-07-28T05:30:05.549Z,59.62
2022-07-28T05:31:05.555Z,60.59
2022-07-28T05:32:16.100Z,59.30
2022-07-28T05:33:07.530Z,59.14
2022-07-28T05:34:05.519Z,58.97
2022-07-28T05:35:05.509Z,62.52
2022-07-28T05:36:05.550Z,60.75
2022-07-28T05:37:05.502Z,60.10
2022-07-28T05:38:10.460Z,63.16
2022-07-28T05:39:07.474Z,61.55
2022-07-28T05:40:05.488Z,59.14
2022-07-28T05:41:05.464Z,63.97
2022-07-28T05:42:05.462Z,64.45
2022-07-28T05:43:05.444Z,59.62
2022-07-28T05:44:05.438Z,59.46
2022-07-28T05:45:05.429Z,60.26
2022-07-28T05:46:06.487Z,64.78
2022-07-28T05:47:05.429Z,59.46
2022-07-28T05:48:05.406Z,58.97
2022-07-28T05:49:05.499Z,57.20
2022-07-28T05:50:05.391Z,59.94
2022-07-28T05:51:05.393Z,60.59
2022-07-28T05:52:05.398Z,60.10
2022-07-28T05:53:05.398Z,60.59
2022-07-28T05:54:05.363Z,59.62
2022-07-28T05:55:05.365Z,57.52
2022-07-28T05:56:05.342Z,60.10
2022-07-28T05:57:05.330Z,59.78
2022-07-28T05:58:05.338Z,58.49
2022-07-28T05:59:05.321Z,59.30
2022-07-28T06:00:05.329Z,57.52
2022-07-28T06:01:05.351Z,57.52
2022-07-28T06:02:05.367Z,57.52
2022-07-28T06:03:05.290Z,60.75
2022-07-28T06:04:26.500Z,58.01
2022-07-28T06:05:07.263Z,57.52
2022-07-28T06:06:15.581Z,60.42
2022-07-28T06:07:06.251Z,59.94
2022-07-28T06:08:05.247Z,55.59
2022-07-28T06:09:05.231Z,53.50
2022-07-28T06:10:05.225Z,58.65
2022-07-28T06:11:05.220Z,58.97
2022-07-28T06:12:05.206Z,61.23
2022-07-28T06:13:05.204Z,59.46
2022-07-28T06:14:05.185Z,59.94
2022-07-28T06:15:06.181Z,59.14
2022-07-28T06:16:07.398Z,58.01
2022-07-28T06:17:06.240Z,58.81
2022-07-28T06:18:05.171Z,60.75
2022-07-28T06:19:05.154Z,57.36
2022-07-28T06:20:05.141Z,59.94
2022-07-28T06:21:05.169Z,60.59
2022-07-28T06:22:05.138Z,59.94
2022-07-28T06:23:05.123Z,60.26
2022-07-28T06:24:05.124Z,59.78
2022-07-28T06:25:05.111Z,59.62
2022-07-28T06:26:05.102Z,60.42
2022-07-28T06:27:05.088Z,60.75
2022-07-28T06:28:05.108Z,60.10
2022-07-28T06:29:05.089Z,57.52
2022-07-28T06:30:05.073Z,57.69
2022-07-28T06:31:05.131Z,59.78
2022-07-28T06:32:05.149Z,58.17
2022-07-28T06:33:05.037Z,57.85
2022-07-28T06:34:05.029Z,60.10
2022-07-28T06:35:05.026Z,60.75
2022-07-28T06:36:05.013Z,56.88
2022-07-28T06:37:05.010Z,60.42
2022-07-28T06:38:05.013Z,59.46
2022-07-28T06:39:04.988Z,56.07
2022-07-28T06:40:04.984Z,58.33
2022-07-28T06:41:04.978Z,57.52
2022-07-28T06:42:04.968Z,55.75
2022-07-28T06:43:04.964Z,61.87
2022-07-28T06:44:04.953Z,59.14
2022-07-28T06:45:04.942Z,60.10
2022-07-28T06:46:04.932Z,58.97
2022-07-28T06:47:05.020Z,61.23
2022-07-28T06:48:04.925Z,59.14
2022-07-28T06:49:04.963Z,60.59
2022-07-28T06:50:06.813Z,58.33
2022-07-28T06:51:05.906Z,61.23
2022-07-28T06:52:04.890Z,60.10
2022-07-28T06:53:05.227Z,57.20
2022-07-28T06:54:10.804Z,59.30
2022-07-28T06:55:06.873Z,60.91
2022-07-28T06:56:04.862Z,59.94
2022-07-28T06:57:04.975Z,56.07
2022-07-28T06:58:04.848Z,58.01
2022-07-28T06:59:04.829Z,59.78
2022-07-28T07:00:04.841Z,60.91
2022-07-28T07:01:04.894Z,59.62
2022-07-28T07:02:04.798Z,60.26
2022-07-28T07:03:05.340Z,60.75
2022-07-28T07:04:04.843Z,60.42
2022-07-28T07:05:04.814Z,59.46
2022-07-28T07:06:04.773Z,59.30
2022-07-28T07:07:04.768Z,57.85
2022-07-28T07:08:05.756Z,58.17
2022-07-28T07:09:04.755Z,60.75
2022-07-28T07:10:04.743Z,56.07
2022-07-28T07:11:04.741Z,58.17
2022-07-28T07:12:04.724Z,58.49
2022-07-28T07:13:04.726Z,58.81
2022-07-28T07:14:04.708Z,59.14
2022-07-28T07:15:04.700Z,58.81
2022-07-28T07:16:04.728Z,54.30
2022-07-28T07:17:04.697Z,59.62
2022-07-28T07:18:04.686Z,58.65
2022-07-28T07:19:05.793Z,57.04
2022-07-28T07:20:04.658Z,60.59
2022-07-28T07:21:04.662Z,60.91
2022-07-28T07:22:04.655Z,59.46
2022-07-28T07:23:04.649Z,61.23
2022-07-28T07:24:04.633Z,59.14
2022-07-28T07:25:04.624Z,58.49
2022-07-28T07:26:04.622Z,58.65
2022-07-28T07:27:04.615Z,55.59
2022-07-28T07:28:04.599Z,57.85
2022-07-28T07:29:04.605Z,58.97
2022-07-28T07:30:04.592Z,61.23
2022-07-28T07:31:04.604Z,61.23
2022-07-28T07:32:10.096Z,59.46
2022-07-28T07:33:07.905Z,59.46
2022-07-28T07:34:04.561Z,60.26
2022-07-28T07:35:04.552Z,59.46
2022-07-28T07:36:04.541Z,59.94
2022-07-28T07:37:04.527Z,61.23
2022-07-28T07:38:05.399Z,62.36
2022-07-28T07:39:04.525Z,60.75
2022-07-28T07:40:04.518Z,56.72
2022-07-28T07:41:04.523Z,60.59
2022-07-28T07:42:04.496Z,59.46
2022-07-28T07:43:04.484Z,60.10
2022-07-28T07:44:04.516Z,60.26
2022-07-28T07:45:04.476Z,60.59
2022-07-28T07:46:04.500Z,59.62
2022-07-28T07:47:04.570Z,60.42
2022-07-28T07:48:04.454Z,58.65
2022-07-28T07:49:04.486Z,59.78
2022-07-28T07:50:04.789Z,56.72
2022-07-28T07:51:04.427Z,60.10
2022-07-28T07:52:04.406Z,60.59
2022-07-28T07:53:05.417Z,59.30
2022-07-28T07:54:04.396Z,55.91
2022-07-28T07:55:04.393Z,60.10
2022-07-28T07:56:04.385Z,61.87
2022-07-28T07:57:04.377Z,59.94
2022-07-28T07:58:04.369Z,60.10
2022-07-28T07:59:04.379Z,60.42
2022-07-28T08:00:04.362Z,59.62
2022-07-28T08:01:04.348Z,58.33
2022-07-28T08:02:04.429Z,58.01
2022-07-28T08:03:04.329Z,63.16
2022-07-28T08:04:05.363Z,57.52
2022-07-28T08:05:04.387Z,59.62
2022-07-28T08:06:04.322Z,59.94
2022-07-28T08:07:04.297Z,58.33
2022-07-28T08:08:04.291Z,59.62
2022-07-28T08:09:04.286Z,57.20
2022-07-28T08:10:04.274Z,58.49
2022-07-28T08:11:04.278Z,60.42
2022-07-28T08:12:04.269Z,57.69
2022-07-28T08:13:04.247Z,59.14
2022-07-28T08:14:04.264Z,59.30
2022-07-28T08:15:04.246Z,57.52
2022-07-28T08:16:04.297Z,58.33
2022-07-28T08:17:04.228Z,57.52
2022-07-28T08:18:04.212Z,54.79
2022-07-28T08:19:04.208Z,62.20
2022-07-28T08:20:04.192Z,58.81
2022-07-28T08:21:04.182Z,58.81
2022-07-28T08:22:04.204Z,61.39
2022-07-28T08:23:04.182Z,62.36
2022-07-28T08:24:04.164Z,59.94
2022-07-28T08:25:04.186Z,57.52
2022-07-28T08:26:04.148Z,58.01
2022-07-28T08:27:04.146Z,60.26
2022-07-28T08:28:04.138Z,59.78
2022-07-28T08:29:04.126Z,58.65
2022-07-28T08:30:04.122Z,60.91
2022-07-28T08:31:04.186Z,59.94
2022-07-28T08:32:04.121Z,58.81
2022-07-28T08:33:04.104Z,58.33
2022-07-28T08:34:04.080Z,59.46
2022-07-28T08:35:31.602Z,59.46
2022-07-28T08:36:06.064Z,57.52
2022-07-28T08:37:04.073Z,60.26
2022-07-28T08:38:04.052Z,60.42
2022-07-28T08:39:04.039Z,59.46
2022-07-28T08:40:04.030Z,59.14
2022-07-28T08:41:04.026Z,61.23
2022-07-28T08:42:04.019Z,54.95
2022-07-28T08:43:04.015Z,56.40
2022-07-28T08:44:04.006Z,59.46
2022-07-28T08:45:04.005Z,56.56
2022-07-28T08:46:04.017Z,56.88
2022-07-28T08:47:05.019Z,58.33
2022-07-28T08:48:08.702Z,57.20
2022-07-28T08:49:05.998Z,59.62
2022-07-28T08:50:04.849Z,59.62
2022-07-28T08:51:03.947Z,60.26
2022-07-28T08:52:03.943Z,61.23
2022-07-28T08:53:03.946Z,59.46
2022-07-28T08:54:03.932Z,59.94
2022-07-28T08:55:03.921Z,58.01
2022-07-28T08:56:03.911Z,58.65
2022-07-28T08:57:03.923Z,62.04
2022-07-28T08:58:03.895Z,58.49
2022-07-28T08:59:03.882Z,61.23
2022-07-28T09:00:03.872Z,63.16
2022-07-28T09:01:03.875Z,60.59
2022-07-28T09:02:03.908Z,60.10
2022-07-28T09:03:03.945Z,60.26
2022-07-28T09:04:03.858Z,60.26
2022-07-28T09:05:03.837Z,59.94
2022-07-28T09:06:03.839Z,58.17
2022-07-28T09:07:03.843Z,58.97
2022-07-28T09:08:03.830Z,60.10
2022-07-28T09:09:03.806Z,58.17
2022-07-28T09:10:03.795Z,59.30
2022-07-28T09:11:03.796Z,58.65
2022-07-28T09:12:03.795Z,59.46
2022-07-28T09:13:03.789Z,56.07
2022-07-28T09:14:03.770Z,55.43
2022-07-28T09:15:03.771Z,57.85
2022-07-28T09:16:03.842Z,59.46
2022-07-28T09:17:05.452Z,59.62
2022-07-28T09:18:03.744Z,59.46
2022-07-28T09:19:03.726Z,61.71
2022-07-28T09:20:08.859Z,63.97
2022-07-28T09:21:05.729Z,63.33
2022-07-28T09:22:03.707Z,61.07
2022-07-28T09:23:03.708Z,59.14
2022-07-28T09:24:03.696Z,59.62
2022-07-28T09:25:03.685Z,59.14
2022-07-28T09:26:09.958Z,60.42
2022-07-28T09:27:05.665Z,59.62
2022-07-28T09:28:03.670Z,60.26
2022-07-28T09:29:03.656Z,59.62
2022-07-28T09:30:03.642Z,61.23
2022-07-28T09:31:03.689Z,61.23
2022-07-28T09:32:03.661Z,59.62
2022-07-28T09:33:03.623Z,58.33
2022-07-28T09:34:03.629Z,59.30
2022-07-28T09:35:03.634Z,61.39
2022-07-28T09:36:03.617Z,60.42
2022-07-28T09:37:03.591Z,57.85
2022-07-28T09:38:03.606Z,61.07
2022-07-28T09:39:03.571Z,59.78
2022-07-28T09:40:04.119Z,57.36
2022-07-28T09:41:04.566Z,60.10
2022-07-28T09:42:04.419Z,58.65
2022-07-28T09:43:03.553Z,60.10
2022-07-28T09:44:03.543Z,57.69
2022-07-28T09:45:21.743Z,59.46
2022-07-28T09:46:05.663Z,58.17
2022-07-28T09:47:04.533Z,59.14
2022-07-28T09:48:03.738Z,54.95
2022-07-28T09:49:03.696Z,57.36
2022-07-28T09:50:03.568Z,62.20
2022-07-28T09:51:03.481Z,58.49
2022-07-28T09:52:03.497Z,59.14
2022-07-28T09:53:03.461Z,60.59
2022-07-28T09:54:03.451Z,60.91
2022-07-28T09:55:03.454Z,58.49
2022-07-28T09:56:03.433Z,60.91
2022-07-28T09:57:04.432Z,59.46
2022-07-28T09:58:04.383Z,62.20
2022-07-28T09:59:03.424Z,59.94
2022-07-28T10:00:03.407Z,58.97
2022-07-28T10:01:03.405Z,59.30
2022-07-28T10:02:03.437Z,59.94
2022-07-28T10:03:03.478Z,62.20
2022-07-28T10:04:03.375Z,59.46
2022-07-28T10:05:03.372Z,59.46
2022-07-28T10:06:03.358Z,58.97
2022-07-28T10:07:03.348Z,59.94
2022-07-28T10:08:03.399Z,57.36
2022-07-28T10:09:03.336Z,58.65
2022-07-28T10:10:03.331Z,57.85
2022-07-28T10:11:03.321Z,58.65
2022-07-28T10:12:03.318Z,59.62
2022-07-28T10:13:03.317Z,58.17
2022-07-28T10:14:03.310Z,57.85
2022-07-28T10:15:03.294Z,59.94
2022-07-28T10:16:03.355Z,55.27
2022-07-28T10:17:06.235Z,59.62
2022-07-28T10:18:04.273Z,60.59
2022-07-28T10:19:03.268Z,60.10
2022-07-28T10:20:03.243Z,59.46
2022-07-28T10:21:03.244Z,57.04
2022-07-28T10:22:03.244Z,61.07
2022-07-28T10:23:03.226Z,57.20
2022-07-28T10:24:03.218Z,58.97
2022-07-28T10:25:03.216Z,59.14
2022-07-28T10:26:03.215Z,60.75
2022-07-28T10:27:04.184Z,59.62
2022-07-28T10:28:03.179Z,58.81
2022-07-28T10:29:03.179Z,62.20
2022-07-28T10:30:03.163Z,63.49
2022-07-28T10:31:03.246Z,59.78
2022-07-28T10:32:03.150Z,59.78
2022-07-28T10:33:03.157Z,60.91
2022-07-28T10:34:03.157Z,59.94
2022-07-28T10:35:03.132Z,61.55
2022-07-28T10:36:03.121Z,57.36
2022-07-28T10:37:03.107Z,58.65
2022-07-28T10:38:03.099Z,56.88
2022-07-28T10:39:03.123Z,59.78
2022-07-28T10:40:07.839Z,59.46
2022-07-28T10:41:05.076Z,60.26
2022-07-28T10:42:03.068Z,58.65
2022-07-28T10:43:03.058Z,58.17
2022-07-28T10:44:03.063Z,60.42
2022-07-28T10:45:03.045Z,57.69
2022-07-28T10:46:06.092Z,58.81
2022-07-28T10:47:04.064Z,59.30
2022-07-28T10:48:03.013Z,59.94
2022-07-28T10:49:03.521Z,58.01
2022-07-28T10:50:03.041Z,58.81
2022-07-28T10:51:03.016Z,61.23
2022-07-28T10:52:08.754Z,58.49
2022-07-28T10:53:04.020Z,58.01
2022-07-28T10:54:02.989Z,57.52
2022-07-28T10:55:02.973Z,57.20
2022-07-28T10:56:02.956Z,58.97
2022-07-28T10:57:04.769Z,59.14
2022-07-28T10:58:05.143Z,58.81
2022-07-28T10:59:05.048Z,57.04
2022-07-28T11:00:12.792Z,60.10
2022-07-28T11:01:06.243Z,62.20
2022-07-28T11:02:04.046Z,59.94
2022-07-28T11:03:11.746Z,61.55
2022-07-28T11:04:03.898Z,61.87
2022-07-28T11:05:02.889Z,59.62
2022-07-28T11:06:02.891Z,61.55
2022-07-28T11:07:02.871Z,54.95
2022-07-28T11:08:02.862Z,56.24
2022-07-28T11:09:02.850Z,59.78
2022-07-28T11:10:02.849Z,56.72
2022-07-28T11:11:07.767Z,54.30
2022-07-28T11:12:03.835Z,57.52
2022-07-28T11:13:04.118Z,58.49
2022-07-28T11:14:02.816Z,59.14
2022-07-28T11:15:18.243Z,57.69
2022-07-28T11:16:03.791Z,60.75
2022-07-28T11:17:02.815Z,59.94
2022-07-28T11:18:02.784Z,58.65
2022-07-28T11:19:04.814Z,59.94
2022-07-28T11:21:04.763Z,61.07
2022-07-28T11:22:02.752Z,60.75
2022-07-28T11:23:02.743Z,58.33
2022-07-28T11:24:02.731Z,53.66
2022-07-28T11:25:20.979Z,56.56
2022-07-28T11:26:03.716Z,59.62
2022-07-28T11:27:04.230Z,58.33
2022-07-28T11:28:03.693Z,59.94
2022-07-28T11:29:02.685Z,61.07
2022-07-28T11:30:02.695Z,62.36
2022-07-28T11:31:02.746Z,61.07
2022-07-28T11:32:02.683Z,60.59
2022-07-28T11:33:02.660Z,58.81
2022-07-28T11:34:02.668Z,60.10
2022-07-28T11:35:02.642Z,61.71
2022-07-28T11:36:02.638Z,56.07
2022-07-28T11:37:02.645Z,56.56
2022-07-28T11:38:02.721Z,59.30
2022-07-28T11:39:02.638Z,58.97
2022-07-28T11:40:02.605Z,59.46
2022-07-28T11:41:02.604Z,60.59
2022-07-28T11:42:02.632Z,57.36
2022-07-28T11:43:02.578Z,57.69
2022-07-28T11:44:02.573Z,53.01
2022-07-28T11:45:02.560Z,58.49
2022-07-28T11:46:02.671Z,55.27
2022-07-28T11:47:02.545Z,57.85
2022-07-28T11:48:02.537Z,57.04
2022-07-28T11:49:02.561Z,56.56
2022-07-28T11:50:02.528Z,58.65
2022-07-28T11:51:02.521Z,57.04
2022-07-28T11:52:02.512Z,60.42
2022-07-28T11:53:02.503Z,56.40
2022-07-28T11:54:02.493Z,58.97
2022-07-28T11:55:02.484Z,58.97
2022-07-28T11:56:03.213Z,58.97
2022-07-28T11:57:02.460Z,58.01
2022-07-28T11:58:02.464Z,59.14
2022-07-28T11:59:02.449Z,59.78
2022-07-28T12:00:02.505Z,62.20
2022-07-28T12:01:02.437Z,62.68
2022-07-28T12:02:02.495Z,57.85
2022-07-28T12:03:02.440Z,59.62
2022-07-28T12:04:36.042Z,58.49
2022-07-28T12:05:02.591Z,61.55
2022-07-28T12:06:02.411Z,58.81
2022-07-28T12:07:02.391Z,59.14
2022-07-28T12:08:02.392Z,59.46
2022-07-28T12:09:02.510Z,59.30
2022-07-28T12:10:02.371Z,59.78
2022-07-28T12:11:03.039Z,60.26
2022-07-28T12:12:04.009Z,57.52
2022-07-28T12:13:02.408Z,58.97
2022-07-28T12:14:02.447Z,58.33
2022-07-28T12:15:06.924Z,59.14
2022-07-28T12:16:04.344Z,59.14
2022-07-28T12:17:02.525Z,58.65
2022-07-28T12:18:02.314Z,57.36
2022-07-28T12:19:02.298Z,59.46
2022-07-28T12:20:03.041Z,61.23
2022-07-28T12:21:05.272Z,60.26
2022-07-28T12:22:04.285Z,59.62
2022-07-28T12:23:02.270Z,61.55
2022-07-28T12:24:02.316Z,57.85
2022-07-28T12:25:02.254Z,61.23
2022-07-28T12:26:02.962Z,59.94
2022-07-28T12:27:02.240Z,58.01
2022-07-28T12:28:02.288Z,64.61
2022-07-28T12:29:02.243Z,62.68
2022-07-28T12:30:03.215Z,64.61
2022-07-28T12:31:02.210Z,64.13
2022-07-28T12:32:02.348Z,59.30
2022-07-28T12:33:02.194Z,59.78
2022-07-28T12:34:02.197Z,59.14
2022-07-28T12:35:02.193Z,59.14
2022-07-28T12:36:02.178Z,60.10
2022-07-28T12:37:02.409Z,57.52
2022-07-28T12:38:02.153Z,59.46
2022-07-28T12:39:02.143Z,55.91
2022-07-28T12:40:02.140Z,59.62
2022-07-28T12:41:02.133Z,59.78
2022-07-28T12:42:02.118Z,58.17
2022-07-28T12:43:02.114Z,57.36
2022-07-28T12:44:02.109Z,58.97
2022-07-28T12:45:02.103Z,58.65
2022-07-28T12:46:02.142Z,58.33
2022-07-28T12:47:02.079Z,57.20
2022-07-28T12:48:02.074Z,57.52
2022-07-28T12:49:02.132Z,57.36
2022-07-28T12:50:06.579Z,59.62
2022-07-28T12:51:04.052Z,56.56
2022-07-28T12:52:02.048Z,60.10
2022-07-28T12:53:02.045Z,60.75
2022-07-28T12:54:02.026Z,55.91
2022-07-28T12:56:49.911Z,59.14